Time;durP1;ratioP1;P1;durP2;ratioP2;P2;SDS_P1;SDS_P2;PMS_P1;PMS_P2;Temp;Humidity;BMP_temperature;BMP_pressure;BME280_temperature;BME280_humidity;BME280_pressure;Samples;Min_cycle;Max_cycle;Signal;HPM_P1;HPM_P2
2023/05/26 00:00:12;;;;;;;;;;;7.70;59.60;;;;;;4111464;28;20446;-86
2023/05/26 00:02:36;;;;;;;;;;;7.60;59.60;;;;;;4119012;28;19921;-87
2023/05/26 00:04:58;;;;;;;;;;;7.60;59.60;;;;;;4106994;28;19918;-91
2023/05/26 00:07:19;;;;;;;;;;;7.60;59.70;;;;;;4120787;28;19923;-86
2023/05/26 00:09:40;;;;;;;;;;;7.60;59.80;;;;;;4121527;28;19948;-89
2023/05/26 00:12:01;;;;;;;;;;;7.70;59.80;;;;;;4121910;28;19928;-87
2023/05/26 00:14:22;;;;;;;;;;;7.50;59.80;;;;;;4112824;28;20443;-87
2023/05/26 00:16:43;;;;;;;;;;;7.50;59.80;;;;;;4118400;28;19953;-87
2023/05/26 00:19:07;;;;;;;;;;;7.50;59.80;;;;;;4123249;28;19928;-88
2023/05/26 00:21:28;;;;;;;;;;;7.40;59.80;;;;;;4121421;28;20376;-87
2023/05/26 00:23:49;;;;;;;;;;;7.50;59.90;;;;;;4109398;28;19922;-88
2023/05/26 00:26:10;;;;;;;;;;;7.40;59.80;;;;;;4118764;28;19914;-88
2023/05/26 00:28:49;;;;;;;;;;;7.30;59.80;;;;;;4124140;28;19914;-88
2023/05/26 00:31:09;;;;;;;;;;;7.30;59.80;;;;;;4121532;28;20016;-88
2023/05/26 00:33:30;;;;;;;;;;;7.30;59.80;;;;;;4123183;28;19918;-87
2023/05/26 00:35:51;;;;;;;;;;;7.30;60.00;;;;;;4121339;28;19925;-89
2023/05/26 00:38:12;;;;;;;;;;;7.30;60.00;;;;;;4113265;28;19947;-87
2023/05/26 00:40:33;;;;;;;;;;;7.30;60.10;;;;;;4111748;28;19918;-85
2023/05/26 00:42:54;;;;;;;;;;;7.30;60.20;;;;;;4123216;28;19952;-86
2023/05/26 00:45:15;;;;;;;;;;;7.20;60.00;;;;;;4120287;28;19960;-88
2023/05/26 00:47:36;;;;;;;;;;;7.20;60.10;;;;;;4105389;28;20368;-86
2023/05/26 00:49:57;;;;;;;;;;;7.20;60.10;;;;;;4108926;28;19934;-87
2023/05/26 00:52:19;;;;;;;;;;;7.20;60.10;;;;;;4108762;28;20166;-88
2023/05/26 00:54:40;;;;;;;;;;;7.20;60.20;;;;;;4118221;28;19915;-88
2023/05/26 00:57:02;;;;;;;;;;;7.20;60.30;;;;;;4105974;28;20009;-87
2023/05/26 00:59:23;;;;;;;;;;;7.10;60.20;;;;;;4127486;28;19918;-87
2023/05/26 01:01:44;;;;;;;;;;;7.10;60.30;;;;;;4120437;28;19918;-87
2023/05/26 01:04:05;;;;;;;;;;;7.10;60.30;;;;;;4106987;28;19925;-89
2023/05/26 01:06:26;;;;;;;;;;;7.10;61.10;;;;;;4107011;28;19926;-87
2023/05/26 01:08:46;;;;;;;;;;;7.10;60.40;;;;;;4110203;28;19925;-86
2023/05/26 01:11:12;;;;;;;;;;;7.10;60.50;;;;;;4121546;28;19918;-88
2023/05/26 01:13:41;;;;;;;;;;;7.10;60.60;;;;;;4106650;28;20439;-87
2023/05/26 01:16:03;;;;;;;;;;;7.10;60.80;;;;;;4105438;28;19923;-87
2023/05/26 01:18:28;;;;;;;;;;;7.00;60.90;;;;;;4117026;28;19914;-86
2023/05/26 01:20:53;;;;;;;;;;;7.00;61.20;;;;;;4109670;28;19929;-87
2023/05/26 01:23:32;;;;;;;;;;;7.00;61.40;;;;;;4119251;28;19922;-86
2023/05/26 01:25:58;;;;;;;;;;;7.00;61.60;;;;;;4104121;28;19914;-87
2023/05/26 01:28:25;;;;;;;;;;;7.00;62.10;;;;;;4120797;28;19991;-86
2023/05/26 01:30:47;;;;;;;;;;;7.00;63.90;;;;;;4107449;28;19922;-88
2023/05/26 01:33:08;;;;;;;;;;;7.00;63.20;;;;;;4106178;28;19922;-86
2023/05/26 01:35:29;;;;;;;;;;;7.20;63.40;;;;;;4110130;28;19989;-87
2023/05/26 01:37:51;;;;;;;;;;;7.10;63.50;;;;;;4111240;28;19918;-87
2023/05/26 01:40:12;;;;;;;;;;;7.10;63.60;;;;;;4119147;28;19918;-87
2023/05/26 01:42:36;;;;;;;;;;;7.10;65.00;;;;;;4107613;28;19914;-87
2023/05/26 01:45:01;;;;;;;;;;;7.10;65.20;;;;;;4106700;28;19918;-90
2023/05/26 01:47:23;;;;;;;;;;;7.20;65.50;;;;;;4111074;28;19918;-86
2023/05/26 01:49:46;;;;;;;;;;;7.10;65.30;;;;;;4121805;28;20004;-87
2023/05/26 01:52:09;;;;;;;;;;;7.20;65.70;;;;;;4121440;28;20622;-87
2023/05/26 01:54:34;;;;;;;;;;;7.30;66.20;;;;;;4117167;28;19918;-88
2023/05/26 01:56:56;;;;;;;;;;;7.20;65.80;;;;;;4108080;28;20329;-86
2023/05/26 01:59:19;;;;;;;;;;;7.30;65.80;;;;;;4120745;28;20012;-87
2023/05/26 02:01:40;;;;;;;;;;;7.40;66.00;;;;;;4109304;28;20331;-87
2023/05/26 02:04:01;;;;;;;;;;;7.40;65.80;;;;;;4121105;28;19918;-86
2023/05/26 02:06:22;;;;;;;;;;;7.40;65.70;;;;;;4117001;28;19921;-88
2023/05/26 02:08:43;;;;;;;;;;;7.40;65.60;;;;;;4108655;28;20010;-92
2023/05/26 02:11:04;;;;;;;;;;;7.50;65.30;;;;;;4123219;28;19921;-88
2023/05/26 02:13:25;;;;;;;;;;;7.50;65.10;;;;;;4106351;28;19926;-87
2023/05/26 02:15:46;;;;;;;;;;;7.50;65.00;;;;;;4103581;28;19993;-87
2023/05/26 02:18:07;;;;;;;;;;;7.50;64.80;;;;;;4108698;28;19941;-88
2023/05/26 02:20:28;;;;;;;;;;;7.50;64.90;;;;;;4106369;28;19926;-88
2023/05/26 02:22:49;;;;;;;;;;;7.50;64.60;;;;;;4119408;28;19968;-87
2023/05/26 02:25:09;;;;;;;;;;;7.40;64.50;;;;;;4122652;28;20023;-88
2023/05/26 02:27:30;;;;;;;;;;;7.50;64.40;;;;;;4108304;28;19918;-87
2023/05/26 02:29:51;;;;;;;;;;;7.50;64.40;;;;;;4119531;28;19925;-87
2023/05/26 02:32:12;;;;;;;;;;;7.40;64.30;;;;;;4119090;28;20371;-87
2023/05/26 02:34:33;;;;;;;;;;;7.40;64.20;;;;;;4119356;28;19946;-88
2023/05/26 02:36:55;;;;;;;;;;;7.40;64.20;;;;;;4121960;28;19921;-89
2023/05/26 02:39:17;;;;;;;;;;;7.40;64.20;;;;;;4105450;28;19918;-88
2023/05/26 02:41:38;;;;;;;;;;;7.40;64.10;;;;;;4109315;28;19922;-89
2023/05/26 02:43:59;;;;;;;;;;;7.40;63.90;;;;;;4117310;28;19922;-89
2023/05/26 02:46:20;;;;;;;;;;;7.30;63.90;;;;;;4112637;28;19918;-88
2023/05/26 02:48:41;;;;;;;;;;;7.30;63.90;;;;;;4111054;28;19918;-87
2023/05/26 02:51:02;;;;;;;;;;;7.30;63.80;;;;;;4114949;28;20363;-86
2023/05/26 02:53:23;;;;;;;;;;;7.30;64.10;;;;;;4110266;28;19927;-87
2023/05/26 02:55:44;;;;;;;;;;;7.30;64.00;;;;;;4122068;28;19924;-87
2023/05/26 02:58:05;;;;;;;;;;;7.20;64.00;;;;;;4111640;28;19978;-88
2023/05/26 03:00:26;;;;;;;;;;;7.20;64.00;;;;;;4108496;28;19918;-87
2023/05/26 03:02:47;;;;;;;;;;;7.10;64.00;;;;;;4110458;28;20273;-87
2023/05/26 03:05:08;;;;;;;;;;;7.20;64.10;;;;;;4106442;28;20288;-87
2023/05/26 03:07:28;;;;;;;;;;;7.10;64.10;;;;;;4105644;28;20177;-86
2023/05/26 03:09:50;;;;;;;;;;;7.10;64.10;;;;;;4107406;28;19918;-87
2023/05/26 03:12:15;;;;;;;;;;;7.10;64.50;;;;;;4115022;28;19922;-89
2023/05/26 03:14:36;;;;;;;;;;;7.10;64.40;;;;;;4107950;28;19968;-90
2023/05/26 03:16:57;;;;;;;;;;;7.10;64.60;;;;;;4123074;28;20344;-87
2023/05/26 03:19:18;;;;;;;;;;;7.00;64.60;;;;;;4107839;28;20475;-86
2023/05/26 03:21:39;;;;;;;;;;;7.00;64.40;;;;;;4112324;28;19960;-86
2023/05/26 03:24:00;;;;;;;;;;;7.00;64.60;;;;;;4125462;28;20580;-87
2023/05/26 03:26:22;;;;;;;;;;;7.00;64.70;;;;;;4122432;28;19914;-87
2023/05/26 03:28:42;;;;;;;;;;;7.00;64.80;;;;;;4108963;28;20310;-88
2023/05/26 03:31:03;;;;;;;;;;;7.00;64.70;;;;;;4112574;28;19922;-87
2023/05/26 03:33:24;;;;;;;;;;;7.00;64.80;;;;;;4126474;28;20059;-88
2023/05/26 03:35:45;;;;;;;;;;;7.10;64.90;;;;;;4121569;28;19918;-88
2023/05/26 03:38:06;;;;;;;;;;;7.00;65.10;;;;;;4110196;28;19925;-88
2023/05/26 03:40:27;;;;;;;;;;;7.00;65.00;;;;;;4110044;28;19970;-88
2023/05/26 03:42:47;;;;;;;;;;;7.00;65.00;;;;;;4105785;28;20024;-90
2023/05/26 03:45:09;;;;;;;;;;;7.10;65.10;;;;;;4119571;28;19930;-87
2023/05/26 03:47:30;;;;;;;;;;;7.00;65.20;;;;;;4108463;28;20924;-89
2023/05/26 03:49:50;;;;;;;;;;;7.10;65.20;;;;;;4110176;28;20480;-87
2023/05/26 03:52:11;;;;;;;;;;;7.00;65.30;;;;;;4113224;28;19922;-88
2023/05/26 03:54:32;;;;;;;;;;;7.00;65.30;;;;;;4121119;28;19929;-89
2023/05/26 03:56:54;;;;;;;;;;;7.00;65.20;;;;;;4110604;28;19961;-86
2023/05/26 03:59:15;;;;;;;;;;;7.00;65.30;;;;;;4110012;28;19914;-89
2023/05/26 04:01:37;;;;;;;;;;;7.00;65.50;;;;;;4111571;28;20017;-87
2023/05/26 04:03:57;;;;;;;;;;;7.10;65.50;;;;;;4112834;28;20319;-87
2023/05/26 04:06:18;;;;;;;;;;;7.10;65.60;;;;;;4127023;28;19913;-87
2023/05/26 04:08:39;;;;;;;;;;;7.10;65.70;;;;;;4125277;28;19914;-88
2023/05/26 04:11:00;;;;;;;;;;;7.10;65.70;;;;;;4124717;28;19984;-87
2023/05/26 04:13:21;;;;;;;;;;;7.20;65.80;;;;;;4112797;28;20084;-88
2023/05/26 04:15:42;;;;;;;;;;;7.30;65.80;;;;;;4104591;28;20004;-88
2023/05/26 04:18:03;;;;;;;;;;;7.20;65.90;;;;;;4122056;28;20312;-87
2023/05/26 04:20:23;;;;;;;;;;;7.30;66.10;;;;;;4107945;28;20029;-88
2023/05/26 04:22:45;;;;;;;;;;;7.30;66.10;;;;;;4113506;28;20456;-88
2023/05/26 04:25:07;;;;;;;;;;;7.40;66.40;;;;;;4111031;28;20009;-89
2023/05/26 04:27:27;;;;;;;;;;;7.40;66.40;;;;;;4126539;28;19914;-86
2023/05/26 04:29:48;;;;;;;;;;;7.50;66.40;;;;;;4118629;28;20038;-88
2023/05/26 04:32:11;;;;;;;;;;;7.50;66.30;;;;;;4111485;28;19926;-88
2023/05/26 04:34:32;;;;;;;;;;;7.70;66.30;;;;;;4111039;28;20056;-86
2023/05/26 04:36:53;;;;;;;;;;;7.60;66.40;;;;;;4122949;28;20427;-86
2023/05/26 04:39:15;;;;;;;;;;;7.70;66.40;;;;;;4113415;28;19947;-87
2023/05/26 04:41:36;;;;;;;;;;;7.70;66.40;;;;;;4124617;28;20307;-88
2023/05/26 04:43:56;;;;;;;;;;;7.90;66.50;;;;;;4126223;28;20173;-88
2023/05/26 04:46:18;;;;;;;;;;;7.90;66.40;;;;;;4120159;28;19926;-87
2023/05/26 04:48:39;;;;;;;;;;;8.00;66.60;;;;;;4120299;28;20424;-86
2023/05/26 04:51:02;;;;;;;;;;;8.00;66.40;;;;;;4109545;28;20208;-89
2023/05/26 04:53:23;;;;;;;;;;;8.10;66.40;;;;;;4123400;28;19918;-87
2023/05/26 04:55:44;;;;;;;;;;;8.10;66.30;;;;;;4129185;28;19928;-88
2023/05/26 04:58:06;;;;;;;;;;;8.10;66.20;;;;;;4139333;28;19914;-90
2023/05/26 05:00:31;;;;;;;;;;;8.20;66.30;;;;;;4111230;28;19938;-86
2023/05/26 05:02:52;;;;;;;;;;;8.30;66.40;;;;;;4121526;28;20453;-87
2023/05/26 05:05:13;;;;;;;;;;;8.30;66.60;;;;;;4120481;28;19910;-90
2023/05/26 05:07:34;;;;;;;;;;;8.50;66.70;;;;;;4103471;28;20001;-89
2023/05/26 05:09:55;;;;;;;;;;;8.50;66.60;;;;;;4110198;28;19922;-86
2023/05/26 05:12:16;;;;;;;;;;;8.60;66.40;;;;;;4123974;28;19914;-88
2023/05/26 05:14:37;;;;;;;;;;;8.60;66.20;;;;;;4122957;28;20369;-87
2023/05/26 05:16:58;;;;;;;;;;;8.80;66.40;;;;;;4123473;28;19914;-88
2023/05/26 05:19:18;;;;;;;;;;;8.90;66.10;;;;;;4116294;28;19918;-87
2023/05/26 05:21:39;;;;;;;;;;;8.80;65.70;;;;;;4145577;28;19941;-91
2023/05/26 05:24:00;;;;;;;;;;;8.90;65.60;;;;;;4141603;28;19906;-90
2023/05/26 05:26:22;;;;;;;;;;;9.00;65.70;;;;;;4131839;28;19989;-91
2023/05/26 05:28:43;;;;;;;;;;;9.00;65.40;;;;;;4130092;28;19902;-90
2023/05/26 05:31:03;;;;;;;;;;;9.00;65.20;;;;;;4142232;28;19971;-90
2023/05/26 05:33:25;;;;;;;;;;;9.10;65.10;;;;;;4127416;28;19910;-90
2023/05/26 05:35:46;;;;;;;;;;;9.20;64.90;;;;;;4107570;28;19919;-87
2023/05/26 05:38:07;;;;;;;;;;;9.20;64.80;;;;;;4123888;28;19990;-89
2023/05/26 05:40:27;;;;;;;;;;;9.20;64.60;;;;;;4109494;28;20422;-87
2023/05/26 05:42:48;;;;;;;;;;;9.20;64.40;;;;;;4107215;28;19918;-90
2023/05/26 05:45:09;;;;;;;;;;;9.30;64.50;;;;;;4116736;28;19922;-88
2023/05/26 05:47:30;;;;;;;;;;;9.40;64.70;;;;;;4112448;28;20061;-90
2023/05/26 05:49:51;;;;;;;;;;;9.40;64.70;;;;;;4106549;28;19914;-89
2023/05/26 05:52:14;;;;;;;;;;;9.50;64.50;;;;;;4108543;28;19919;-88
2023/05/26 05:54:35;;;;;;;;;;;9.50;64.40;;;;;;4106823;28;19960;-89
2023/05/26 05:56:56;;;;;;;;;;;9.60;64.40;;;;;;4121625;28;19910;-89
2023/05/26 05:59:19;;;;;;;;;;;9.60;64.30;;;;;;4118621;28;19914;-88
2023/05/26 06:01:40;;;;;;;;;;;9.70;64.40;;;;;;4120273;28;19910;-88
2023/05/26 06:04:02;;;;;;;;;;;9.80;64.40;;;;;;4107896;28;19922;-90
2023/05/26 06:06:22;;;;;;;;;;;9.90;64.20;;;;;;4113020;28;19921;-88
2023/05/26 06:08:43;;;;;;;;;;;9.90;63.90;;;;;;4111257;28;19917;-87
2023/05/26 06:11:04;;;;;;;;;;;10.00;63.80;;;;;;4107387;28;19918;-88
2023/05/26 06:13:25;;;;;;;;;;;10.00;63.20;;;;;;4111089;28;19914;-88
2023/05/26 06:15:46;;;;;;;;;;;10.20;63.60;;;;;;4108867;28;19997;-89
2023/05/26 06:18:07;;;;;;;;;;;10.20;63.00;;;;;;4108908;28;20393;-88
2023/05/26 06:20:28;;;;;;;;;;;10.30;63.00;;;;;;4108304;28;20021;-90
2023/05/26 06:22:49;;;;;;;;;;;10.40;62.80;;;;;;4112940;28;19929;-90
2023/05/26 06:25:10;;;;;;;;;;;10.40;62.80;;;;;;4110011;28;19918;-89
2023/05/26 06:27:30;;;;;;;;;;;10.50;62.10;;;;;;4120198;28;19909;-88
2023/05/26 06:29:51;;;;;;;;;;;10.50;62.00;;;;;;4126528;28;20438;-89
2023/05/26 06:32:12;;;;;;;;;;;10.60;61.50;;;;;;4111009;28;19919;-86
2023/05/26 06:34:33;;;;;;;;;;;10.70;61.20;;;;;;4113834;28;19918;-87
2023/05/26 06:36:54;;;;;;;;;;;10.80;61.30;;;;;;4109691;28;19924;-87
2023/05/26 06:39:15;;;;;;;;;;;10.80;61.40;;;;;;4112213;28;20008;-87
2023/05/26 06:41:36;;;;;;;;;;;10.80;60.30;;;;;;4121944;28;19914;-87
2023/05/26 06:43:57;;;;;;;;;;;10.90;60.40;;;;;;4117972;28;20351;-87
2023/05/26 06:46:18;;;;;;;;;;;11.00;60.00;;;;;;4113717;28;20451;-88
2023/05/26 06:48:39;;;;;;;;;;;11.10;59.80;;;;;;4108646;28;19970;-87
2023/05/26 06:50:59;;;;;;;;;;;11.10;59.70;;;;;;4127477;28;19940;-87
2023/05/26 06:53:20;;;;;;;;;;;11.10;59.90;;;;;;4123812;28;19925;-89
2023/05/26 06:55:41;;;;;;;;;;;11.30;60.10;;;;;;4113240;28;19918;-88
2023/05/26 06:58:02;;;;;;;;;;;11.30;59.80;;;;;;4110553;28;20265;-85
2023/05/26 07:00:23;;;;;;;;;;;11.40;59.50;;;;;;4124919;28;19914;-88
2023/05/26 07:02:44;;;;;;;;;;;11.40;59.20;;;;;;4095283;28;20379;-88
2023/05/26 07:05:05;;;;;;;;;;;11.40;59.10;;;;;;4114975;28;20014;-89
2023/05/26 07:07:26;;;;;;;;;;;11.40;59.00;;;;;;4123236;28;19964;-86
2023/05/26 07:09:46;;;;;;;;;;;11.40;59.00;;;;;;4108108;28;19918;-87
2023/05/26 07:12:09;;;;;;;;;;;11.50;58.90;;;;;;4126418;28;19960;-90
2023/05/26 07:14:30;;;;;;;;;;;11.60;59.00;;;;;;4107839;28;19914;-87
2023/05/26 07:16:51;;;;;;;;;;;11.50;59.10;;;;;;4108059;28;20392;-89
2023/05/26 07:19:11;;;;;;;;;;;11.50;59.00;;;;;;4118163;28;20944;-90
2023/05/26 07:21:32;;;;;;;;;;;11.50;59.00;;;;;;4124178;28;20315;-88
2023/05/26 07:23:53;;;;;;;;;;;11.50;59.10;;;;;;4121912;28;19910;-88
2023/05/26 07:26:14;;;;;;;;;;;11.50;59.30;;;;;;4112627;28;19911;-90
2023/05/26 07:28:35;;;;;;;;;;;11.60;59.40;;;;;;4112849;28;19919;-88
2023/05/26 07:30:56;;;;;;;;;;;11.70;59.30;;;;;;4107796;28;20425;-86
2023/05/26 07:33:17;;;;;;;;;;;11.70;58.70;;;;;;4117684;28;19918;-88
2023/05/26 07:35:38;;;;;;;;;;;11.80;58.70;;;;;;4112429;28;20623;-88
2023/05/26 07:37:59;;;;;;;;;;;11.80;57.60;;;;;;4111825;28;19987;-87
2023/05/26 07:40:20;;;;;;;;;;;11.90;57.20;;;;;;4123493;28;20031;-87
2023/05/26 07:42:41;;;;;;;;;;;11.90;56.70;;;;;;4112332;28;19986;-87
2023/05/26 07:45:02;;;;;;;;;;;11.90;56.80;;;;;;4114075;28;20437;-86
2023/05/26 07:47:23;;;;;;;;;;;12.00;57.00;;;;;;4112591;28;19914;-88
2023/05/26 07:49:44;;;;;;;;;;;12.00;56.60;;;;;;4115423;28;19917;-88
2023/05/26 07:52:05;;;;;;;;;;;12.00;56.60;;;;;;4123127;28;19926;-88
2023/05/26 07:54:26;;;;;;;;;;;12.00;56.50;;;;;;4114350;28;20020;-87
2023/05/26 07:56:47;;;;;;;;;;;12.10;56.70;;;;;;4109128;28;19921;-87
2023/05/26 07:59:08;;;;;;;;;;;12.10;56.50;;;;;;4112487;28;19910;-87
2023/05/26 08:01:28;;;;;;;;;;;12.20;56.30;;;;;;4111370;28;19914;-88
2023/05/26 08:03:49;;;;;;;;;;;12.20;56.40;;;;;;4113299;28;19969;-87
2023/05/26 08:06:10;;;;;;;;;;;12.30;56.50;;;;;;4124492;28;19923;-88
2023/05/26 08:08:31;;;;;;;;;;;12.30;56.70;;;;;;4109556;28;19910;-87
2023/05/26 08:10:52;;;;;;;;;;;12.30;56.60;;;;;;4110236;28;19918;-86
2023/05/26 08:13:13;;;;;;;;;;;12.40;56.40;;;;;;4126631;28;19914;-88
2023/05/26 08:15:34;;;;;;;;;;;12.40;55.90;;;;;;4128000;28;19924;-88
2023/05/26 08:17:55;;;;;;;;;;;12.50;55.70;;;;;;4114078;28;19915;-87
2023/05/26 08:20:16;;;;;;;;;;;12.50;55.80;;;;;;4123686;28;20001;-89
2023/05/26 08:22:38;;;;;;;;;;;12.50;55.20;;;;;;4122170;28;19933;-87
2023/05/26 08:24:59;;;;;;;;;;;12.50;55.40;;;;;;4114570;28;19997;-86
2023/05/26 08:27:20;;;;;;;;;;;12.60;55.50;;;;;;4115364;28;20600;-89
2023/05/26 08:29:40;;;;;;;;;;;12.60;55.50;;;;;;4111036;28;20396;-87
2023/05/26 08:32:01;;;;;;;;;;;12.60;55.80;;;;;;4124859;28;20259;-88
2023/05/26 08:34:22;;;;;;;;;;;12.60;55.60;;;;;;4115290;28;19988;-88
2023/05/26 08:36:43;;;;;;;;;;;12.60;55.70;;;;;;4121141;28;19932;-88
2023/05/26 08:39:04;;;;;;;;;;;12.70;56.00;;;;;;4112111;28;19917;-88
2023/05/26 08:41:28;;;;;;;;;;;12.70;55.20;;;;;;4124093;28;19918;-89
2023/05/26 08:43:57;;;;;;;;;;;12.70;55.20;;;;;;4119672;28;19924;-87
2023/05/26 08:46:18;;;;;;;;;;;12.80;55.60;;;;;;4109009;28;19918;-88
2023/05/26 08:48:39;;;;;;;;;;;12.80;55.30;;;;;;4111549;28;19958;-90
2023/05/26 08:51:01;;;;;;;;;;;12.90;55.30;;;;;;4121857;28;19918;-87
2023/05/26 08:53:24;;;;;;;;;;;13.00;55.10;;;;;;4122267;28;19918;-86
2023/05/26 08:55:45;;;;;;;;;;;13.00;54.70;;;;;;4104247;28;20576;-88
2023/05/26 08:58:06;;;;;;;;;;;13.00;54.60;;;;;;4109092;28;20428;-89
2023/05/26 09:00:31;;;;;;;;;;;13.10;54.70;;;;;;4119030;28;19976;-88
2023/05/26 09:02:53;;;;;;;;;;;13.20;55.00;;;;;;4109669;28;19914;-88
2023/05/26 09:05:14;;;;;;;;;;;13.20;55.30;;;;;;4114505;28;19992;-87
2023/05/26 09:07:35;;;;;;;;;;;13.20;54.60;;;;;;4129072;28;19945;-88
2023/05/26 09:10:01;;;;;;;;;;;13.30;54.40;;;;;;4113482;28;20307;-88
2023/05/26 09:12:22;;;;;;;;;;;13.30;54.00;;;;;;4117719;28;20403;-87
2023/05/26 09:14:43;;;;;;;;;;;13.40;54.20;;;;;;4120042;28;20062;-90
2023/05/26 09:17:04;;;;;;;;;;;13.40;54.40;;;;;;4111113;28;20197;-87
2023/05/26 09:19:26;;;;;;;;;;;13.40;54.60;;;;;;4106232;28;20012;-88
2023/05/26 09:21:47;;;;;;;;;;;13.50;54.60;;;;;;4109740;28;19919;-86
2023/05/26 09:24:08;;;;;;;;;;;13.50;54.50;;;;;;4106967;28;19922;-87
2023/05/26 09:26:29;;;;;;;;;;;13.50;54.40;;;;;;4118109;28;20819;-88
2023/05/26 09:28:52;;;;;;;;;;;13.40;54.40;;;;;;4117929;28;19914;-87
2023/05/26 09:31:13;;;;;;;;;;;13.40;54.40;;;;;;4110177;28;20296;-87
2023/05/26 09:33:58;;;;;;;;;;;13.40;54.20;;;;;;4118690;28;19918;-87
2023/05/26 09:36:22;;;;;;;;;;;13.40;54.50;;;;;;4106692;28;20637;-86
2023/05/26 09:38:43;;;;;;;;;;;13.40;54.70;;;;;;4124819;28;19929;-88
2023/05/26 09:41:05;;;;;;;;;;;13.30;55.00;;;;;;4114191;28;19924;-89
2023/05/26 09:43:26;;;;;;;;;;;13.30;55.20;;;;;;4112051;28;19990;-88
2023/05/26 09:45:47;;;;;;;;;;;13.30;55.30;;;;;;4114218;28;19937;-89
2023/05/26 09:48:08;;;;;;;;;;;13.30;55.50;;;;;;4127815;28;20351;-88
2023/05/26 09:50:30;;;;;;;;;;;13.40;56.10;;;;;;4124152;28;19969;-88
2023/05/26 09:52:51;;;;;;;;;;;13.40;55.50;;;;;;4126255;28;19957;-88
2023/05/26 09:55:12;;;;;;;;;;;13.40;55.10;;;;;;4124843;28;20588;-88
2023/05/26 09:57:35;;;;;;;;;;;13.40;55.00;;;;;;4122639;28;19922;-88
2023/05/26 09:59:57;;;;;;;;;;;13.50;54.70;;;;;;4115889;28;21736;-88
2023/05/26 10:02:50;;;;;;;;;;;13.50;54.60;;;;;;4129554;28;19914;-90
2023/05/26 10:05:11;;;;;;;;;;;13.50;54.50;;;;;;4115230;28;20612;-88
2023/05/26 10:07:33;;;;;;;;;;;13.60;54.70;;;;;;4134436;28;19953;-88
2023/05/26 10:10:13;;;;;;;;;;;13.60;54.60;;;;;;4129307;28;20002;-90
2023/05/26 10:17:38;;;;;;;;;;;13.70;54.10;;;;;;4216712;23;19929;-90
2023/05/26 10:20:00;;;;;;;;;;;13.70;53.90;;;;;;4126846;28;20009;-88
2023/05/26 10:22:38;;;;;;;;;;;13.90;54.10;;;;;;4123296;28;19992;-87
2023/05/26 10:25:25;;;;;;;;;;;13.90;53.50;;;;;;4114539;28;19922;-85
2023/05/26 10:28:07;;;;;;;;;;;14.10;53.80;;;;;;4126461;28;20363;-88
2023/05/26 10:30:28;;;;;;;;;;;14.10;53.70;;;;;;4118622;28;20367;-86
2023/05/26 10:33:19;;;;;;;;;;;14.10;53.60;;;;;;4124257;28;19956;-87
2023/05/26 10:36:08;;;;;;;;;;;14.20;53.60;;;;;;4124993;28;19922;-86
2023/05/26 10:38:37;;;;;;;;;;;14.20;53.90;;;;;;4124997;28;20380;-87
2023/05/26 10:40:57;;;;;;;;;;;14.20;53.80;;;;;;4127435;28;19945;-86
2023/05/26 10:43:22;;;;;;;;;;;14.30;53.20;;;;;;4128158;28;19914;-87
2023/05/26 10:45:44;;;;;;;;;;;14.30;53.60;;;;;;4137987;28;19915;-87
2023/05/26 10:48:06;;;;;;;;;;;14.40;53.30;;;;;;4138513;28;20300;-90
2023/05/26 10:50:47;;;;;;;;;;;14.50;53.30;;;;;;4132225;28;19937;-86
2023/05/26 10:53:17;;;;;;;;;;;14.50;53.00;;;;;;4129103;28;19926;-88
2023/05/26 10:55:52;;;;;;;;;;;14.60;52.90;;;;;;4120408;28;19925;-89
2023/05/26 10:58:28;;;;;;;;;;;14.60;52.20;;;;;;4137599;28;19914;-86
2023/05/26 11:00:53;;;;;;;;;;;14.60;52.10;;;;;;4124595;28;20422;-87
2023/05/26 11:03:36;;;;;;;;;;;14.70;52.20;;;;;;4121533;28;19917;-87
2023/05/26 11:05:57;;;;;;;;;;;14.70;52.30;;;;;;4122751;28;19961;-86
2023/05/26 11:08:22;;;;;;;;;;;14.80;52.20;;;;;;4112592;28;20064;-87
2023/05/26 11:11:00;;;;;;;;;;;14.80;51.80;;;;;;4120521;28;20334;-88
2023/05/26 11:13:42;;;;;;;;;;;14.90;51.90;;;;;;4114691;28;20512;-87
2023/05/26 11:16:23;;;;;;;;;;;14.90;51.40;;;;;;4116892;28;20400;-89
2023/05/26 11:18:48;;;;;;;;;;;15.00;51.50;;;;;;4127855;28;19921;-88
2023/05/26 11:21:09;;;;;;;;;;;15.10;51.40;;;;;;4121028;28;19914;-90
2023/05/26 11:23:30;;;;;;;;;;;15.20;52.00;;;;;;4121112;28;19921;-86
2023/05/26 11:25:52;;;;;;;;;;;15.20;51.70;;;;;;4123896;28;19925;-88
2023/05/26 11:28:17;;;;;;;;;;;15.30;51.60;;;;;;4124992;28;20387;-87
2023/05/26 11:30:38;;;;;;;;;;;15.40;51.30;;;;;;4125920;28;20005;-87
2023/05/26 11:32:59;;;;;;;;;;;15.50;51.50;;;;;;4127857;28;19918;-87
2023/05/26 11:35:30;;;;;;;;;;;15.50;51.00;;;;;;4121956;28;20512;-91
2023/05/26 11:37:51;;;;;;;;;;;15.60;50.60;;;;;;4125957;28;20012;-88
2023/05/26 11:40:12;;;;;;;;;;;15.70;50.20;;;;;;4123225;28;19940;-89
2023/05/26 11:42:33;;;;;;;;;;;15.70;50.60;;;;;;4118650;28;19929;-88
2023/05/26 11:44:55;;;;;;;;;;;15.80;49.50;;;;;;4118021;28;19913;-87
2023/05/26 11:47:24;;;;;;;;;;;15.90;50.40;;;;;;4114374;28;21807;-85
2023/05/26 11:49:47;;;;;;;;;;;15.90;49.20;;;;;;4113349;28;19924;-85
2023/05/26 11:52:17;;;;;;;;;;;15.90;48.90;;;;;;4121617;28;19930;-86
2023/05/26 11:54:38;;;;;;;;;;;15.90;49.40;;;;;;4122630;28;19966;-85
2023/05/26 11:57:00;;;;;;;;;;;16.00;49.60;;;;;;4123665;28;19929;-88
2023/05/26 11:59:21;;;;;;;;;;;16.10;49.40;;;;;;4121028;28;19928;-86
2023/05/26 12:01:42;;;;;;;;;;;16.10;49.70;;;;;;4118573;28;19924;-85
2023/05/26 12:04:04;;;;;;;;;;;16.10;49.80;;;;;;4118652;28;20036;-87
2023/05/26 12:06:26;;;;;;;;;;;16.20;49.80;;;;;;4118138;28;19929;-88
2023/05/26 12:08:47;;;;;;;;;;;16.20;49.80;;;;;;4121770;28;19924;-85
2023/05/26 12:11:14;;;;;;;;;;;16.30;49.10;;;;;;4122401;28;19913;-84
2023/05/26 12:13:37;;;;;;;;;;;16.30;49.20;;;;;;4120299;28;20112;-86
2023/05/26 12:15:58;;;;;;;;;;;16.40;48.90;;;;;;4117984;28;19914;-87
2023/05/26 12:18:21;;;;;;;;;;;16.40;47.20;;;;;;4120038;28;19926;-85
2023/05/26 12:20:42;;;;;;;;;;;16.40;47.90;;;;;;4116851;28;19973;-88
2023/05/26 12:23:05;;;;;;;;;;;16.50;48.30;;;;;;4122478;28;19914;-86
2023/05/26 12:25:27;;;;;;;;;;;16.50;48.40;;;;;;4121677;28;20018;-86
2023/05/26 12:27:48;;;;;;;;;;;16.50;48.20;;;;;;4121295;28;19918;-86
2023/05/26 12:30:19;;;;;;;;;;;16.60;48.10;;;;;;4120921;28;19917;-85
2023/05/26 12:32:40;;;;;;;;;;;16.60;48.00;;;;;;4117861;28;20510;-85
2023/05/26 12:35:01;;;;;;;;;;;16.60;47.00;;;;;;4122931;28;20008;-87
2023/05/26 12:37:21;;;;;;;;;;;16.70;46.90;;;;;;4119736;28;19980;-86
2023/05/26 12:39:42;;;;;;;;;;;16.70;47.10;;;;;;4119248;28;19913;-90
2023/05/26 12:42:03;;;;;;;;;;;16.70;47.00;;;;;;4119336;28;19988;-86
2023/05/26 12:44:24;;;;;;;;;;;16.70;46.80;;;;;;4122866;28;19949;-85
2023/05/26 12:46:46;;;;;;;;;;;16.80;46.40;;;;;;4122176;28;20308;-85
2023/05/26 12:49:07;;;;;;;;;;;16.80;46.10;;;;;;4119478;28;20439;-87
2023/05/26 12:51:29;;;;;;;;;;;16.80;46.30;;;;;;4118707;28;19922;-85
2023/05/26 12:53:50;;;;;;;;;;;16.90;46.20;;;;;;4117153;28;19921;-86
2023/05/26 12:56:11;;;;;;;;;;;16.90;46.20;;;;;;4114491;28;20036;-88
2023/05/26 12:58:32;;;;;;;;;;;16.90;46.70;;;;;;4117603;28;19922;-88
2023/05/26 13:00:56;;;;;;;;;;;16.90;46.10;;;;;;4121629;28;19914;-87
2023/05/26 13:03:17;;;;;;;;;;;16.90;45.40;;;;;;4118185;28;20472;-86
2023/05/26 13:05:38;;;;;;;;;;;17.10;46.20;;;;;;4116988;28;20003;-87
2023/05/26 13:07:59;;;;;;;;;;;17.00;46.70;;;;;;4124152;28;19917;-86
2023/05/26 13:10:20;;;;;;;;;;;17.00;46.40;;;;;;4121610;28;19917;-88
2023/05/26 13:12:41;;;;;;;;;;;17.10;46.20;;;;;;4122310;28;20446;-87
2023/05/26 13:15:03;;;;;;;;;;;17.10;46.10;;;;;;4123287;28;19921;-87
2023/05/26 13:17:23;;;;;;;;;;;17.10;44.80;;;;;;4118955;28;19929;-85
2023/05/26 13:19:45;;;;;;;;;;;17.10;45.20;;;;;;4123712;28;19918;-87
2023/05/26 13:22:06;;;;;;;;;;;17.10;45.30;;;;;;4123733;28;19928;-89
2023/05/26 13:24:27;;;;;;;;;;;17.20;45.50;;;;;;4118846;28;19956;-87
2023/05/26 13:26:48;;;;;;;;;;;17.10;45.20;;;;;;4119210;28;19993;-86
2023/05/26 13:29:10;;;;;;;;;;;17.20;45.40;;;;;;4122554;28;19961;-88
2023/05/26 13:31:31;;;;;;;;;;;17.20;45.00;;;;;;4118807;28;19930;-88
2023/05/26 13:33:52;;;;;;;;;;;17.30;46.10;;;;;;4122537;28;19922;-87
2023/05/26 13:36:13;;;;;;;;;;;17.30;46.20;;;;;;4128578;28;20376;-86
2023/05/26 13:38:34;;;;;;;;;;;17.30;45.80;;;;;;4124215;28;19917;-86
2023/05/26 13:40:58;;;;;;;;;;;17.30;45.70;;;;;;4120124;28;19926;-88
2023/05/26 13:43:19;;;;;;;;;;;17.40;45.30;;;;;;4119763;28;19914;-87
2023/05/26 13:45:39;;;;;;;;;;;17.30;44.50;;;;;;4122697;28;19977;-86
2023/05/26 13:48:00;;;;;;;;;;;17.40;44.90;;;;;;4120573;28;19922;-88
2023/05/26 13:50:22;;;;;;;;;;;17.40;45.40;;;;;;4125770;28;20296;-87
2023/05/26 13:52:43;;;;;;;;;;;17.40;45.10;;;;;;4127870;28;19917;-86
2023/05/26 13:55:05;;;;;;;;;;;17.40;45.00;;;;;;4125755;28;19914;-87
2023/05/26 13:57:29;;;;;;;;;;;17.40;45.00;;;;;;4128113;28;19918;-86
2023/05/26 13:59:51;;;;;;;;;;;17.40;44.70;;;;;;4137772;28;20306;-87